Fisterra (A Coruña), Galicia

latitud = 42° 55' 29''N | longitud = 009° 17' 29''W
230 metros sobre el nivel del mar | datos mensuales

Fecha, hora, temperatura, viento dirección y velocidad, humedad y presión.

  • 14-10-2018 19:00:00 | 14.20°C | Sudoeste |12.00 km/h | 78.00% | 985.20 hPa
  • 14-10-2018 18:00:00 | 14.10°C | Oeste |6.00 km/h | 74.00% | 985.50 hPa
  • 14-10-2018 17:00:00 | 14.90°C | Norte |12.00 km/h | 71.00% | 985.80 hPa
  • 14-10-2018 16:00:00 | 13.90°C | Norte |19.00 km/h | 76.00% | 986.60 hPa
  • 14-10-2018 15:00:00 | 13.90°C | Norte |22.00 km/h | 76.00% | 986.90 hPa
  • 14-10-2018 14:00:00 | 13.70°C | Norte |25.00 km/h | 78.00% | 986.90 hPa
  • 14-10-2018 13:00:00 | 13.60°C | Norte |31.00 km/h | 77.00% | 986.90 hPa
  • 14-10-2018 12:00:00 | 13.50°C | Norte |33.00 km/h | 78.00% | 987.10 hPa
  • 14-10-2018 11:00:00 | 12.70°C | Norte |35.00 km/h | 81.00% | 986.10 hPa
  • 14-10-2018 10:00:00 | 12.70°C | Norte |40.00 km/h | 86.00% | 984.70 hPa
  • 14-10-2018 09:00:00 | 11.40°C | Norte |40.00 km/h | 87.00% | 983.90 hPa
  • 14-10-2018 08:00:00 | 11.60°C | Noroeste |31.00 km/h | 93.00% | 982.90 hPa
  • 14-10-2018 07:00:00 | 12.50°C | Norte |41.00 km/h | 85.00% | 981.60 hPa
  • 14-10-2018 06:00:00 | 12.20°C | Noroeste |28.00 km/h | 88.00% | 981.30 hPa
  • 14-10-2018 05:00:00 | 12.20°C | Noroeste |27.00 km/h | 86.00% | 981.10 hPa
  • 14-10-2018 04:00:00 | 12.10°C | Noroeste |28.00 km/h | 88.00% | 980.90 hPa
  • 14-10-2018 03:00:00 | 11.60°C | Norte |29.00 km/h | 94.00% | 980.40 hPa
  • 14-10-2018 02:00:00 | 11.20°C | Norte |35.00 km/h | 95.00% | 979.80 hPa
  • 14-10-2018 01:00:00 | 11.00°C | Norte |31.00 km/h | 94.00% | 980.40 hPa
  • 14-10-2018 00:00:00 | 11.30°C | Norte |33.00 km/h | 96.00% | 980.60 hPa
  • 13-10-2018 23:00:00 | 11.50°C | Norte |31.00 km/h | 95.00% | 981.20 hPa
  • 13-10-2018 22:00:00 | 11.50°C | Norte |22.00 km/h | 95.00% | 982.40 hPa
  • 13-10-2018 21:00:00 | 11.70°C | Nordeste |29.00 km/h | 94.00% | 982.40 hPa
  • 13-10-2018 20:00:00 | 11.70°C | Norte |27.00 km/h | 95.00% | 982.40 hPa